createdAt,value
2022-10-14T00:01:09.572Z,13.27
2022-10-14T00:03:37.583Z,21.23
2022-10-14T00:06:10.087Z,16.42
2022-10-14T00:08:36.607Z,16.33
2022-10-14T00:11:06.607Z,15.75
2022-10-14T00:13:33.205Z,16.25
2022-10-14T00:16:00.591Z,17.70
2022-10-14T00:18:27.722Z,18.63
2022-10-14T00:21:02.395Z,15.05
2022-10-14T00:23:30.291Z,13.63
2022-10-14T00:25:56.713Z,13.23
2022-10-14T00:28:26.711Z,12.27
2022-10-14T00:30:55.577Z,17.42
2022-10-14T00:33:22.655Z,14.95
2022-10-14T00:35:59.836Z,11.63
2022-10-14T00:38:31.127Z,11.88
2022-10-14T00:40:57.906Z,13.02
2022-10-14T00:43:26.466Z,16.77
2022-10-14T00:45:53.091Z,20.17
2022-10-14T00:48:23.267Z,14.48
2022-10-14T00:50:53.559Z,21.25
2022-10-14T00:53:20.635Z,20.23
2022-10-14T00:55:49.358Z,20.15
2022-10-14T00:58:15.801Z,18.15
2022-10-14T01:00:42.351Z,16.67
2022-10-14T01:03:19.896Z,16.88
2022-10-14T01:05:59.929Z,17.77
2022-10-14T01:08:45.338Z,17.83
2022-10-14T01:12:28.235Z,17.95
2022-10-14T01:15:07.380Z,16.27
2022-10-14T01:18:05.269Z,16.73
2022-10-14T01:21:07.674Z,17.65
2022-10-14T01:24:02.552Z,14.20
2022-10-14T01:27:05.483Z,15.10
2022-10-14T01:29:54.861Z,19.77
2022-10-14T01:32:27.806Z,15.70
2022-10-14T01:35:18.388Z,14.88
2022-10-14T01:37:55.094Z,14.45
2022-10-14T01:40:27.707Z,17.83
2022-10-14T01:42:57.181Z,12.93
2022-10-14T01:45:24.034Z,13.98
2022-10-14T01:47:53.162Z,16.45
2022-10-14T01:50:23.771Z,10.15
2022-10-14T01:53:01.360Z,9.18
2022-10-14T01:55:33.093Z,13.63
2022-10-14T01:58:01.059Z,14.70
2022-10-14T02:00:28.167Z,16.23
2022-10-14T02:02:54.564Z,14.45
2022-10-14T02:05:41.233Z,15.07
2022-10-14T02:08:27.454Z,16.45
2022-10-14T02:11:06.985Z,19.73
2022-10-14T02:13:49.906Z,21.55
2022-10-14T02:16:25.870Z,16.98
2022-10-14T02:19:03.041Z,26.10
2022-10-14T02:21:46.359Z,14.65
2022-10-14T02:24:22.887Z,23.00
2022-10-14T02:26:52.719Z,17.25
2022-10-14T02:29:21.551Z,18.95
2022-10-14T02:31:49.384Z,20.05
2022-10-14T02:34:19.165Z,21.83
2022-10-14T02:36:46.460Z,20.33
2022-10-14T02:39:16.080Z,21.52
2022-10-14T02:41:42.760Z,19.00
2022-10-14T02:44:09.190Z,21.63
2022-10-14T02:46:38.679Z,18.45
2022-10-14T02:49:05.514Z,19.73
2022-10-14T02:51:31.903Z,19.98
2022-10-14T02:53:58.501Z,19.25
2022-10-14T02:56:26.490Z,19.52
2022-10-14T02:58:52.916Z,18.02
2022-10-14T03:01:20.115Z,19.70
2022-10-14T03:03:46.650Z,16.85
2022-10-14T03:06:13.261Z,14.95
2022-10-14T03:08:39.729Z,16.42
2022-10-14T03:11:06.999Z,13.77
2022-10-14T03:13:34.395Z,16.48
2022-10-14T03:16:00.957Z,16.40
2022-10-14T03:18:27.429Z,17.88
2022-10-14T03:20:59.091Z,22.08
2022-10-14T03:23:32.491Z,26.10
2022-10-14T03:25:58.947Z,21.73
2022-10-14T03:28:29.840Z,24.70
2022-10-14T03:31:10.867Z,21.50
2022-10-14T03:33:48.223Z,22.15
2022-10-14T03:36:17.921Z,21.60
2022-10-14T03:38:47.005Z,21.35
2022-10-14T03:41:34.454Z,22.15
2022-10-14T03:44:01.067Z,22.35
2022-10-14T03:46:27.868Z,20.95
2022-10-14T03:48:55.384Z,21.13
2022-10-14T03:51:22.649Z,20.63
2022-10-14T03:53:49.067Z,19.98
2022-10-14T03:56:23.526Z,22.30
2022-10-14T03:58:52.163Z,18.95
2022-10-14T04:01:19.107Z,18.30
2022-10-14T04:04:08.161Z,19.50
2022-10-14T04:06:35.678Z,16.17
2022-10-14T04:09:04.742Z,18.55
2022-10-14T04:11:36.001Z,17.63
2022-10-14T04:14:06.686Z,16.65
2022-10-14T04:16:38.906Z,18.23
2022-10-14T04:19:10.230Z,22.27
2022-10-14T04:21:36.626Z,16.52
2022-10-14T04:24:08.046Z,19.67
2022-10-14T04:26:43.098Z,18.40
2022-10-14T04:29:20.173Z,19.63
2022-10-14T04:31:55.045Z,18.30
2022-10-14T04:34:22.953Z,18.50
2022-10-14T04:36:49.500Z,29.75
2022-10-14T04:39:40.999Z,25.95
2022-10-14T04:42:07.412Z,26.23
2022-10-14T04:44:34.101Z,23.77
2022-10-14T04:47:02.020Z,25.00
2022-10-14T04:49:29.352Z,25.50
2022-10-14T04:52:08.574Z,26.73
2022-10-14T04:54:40.297Z,28.58
2022-10-14T04:57:06.692Z,26.67
2022-10-14T04:59:34.657Z,27.27
2022-10-14T05:02:13.142Z,28.42
2022-10-14T05:04:52.528Z,30.90
2022-10-14T05:07:18.935Z,24.27
2022-10-14T05:09:52.076Z,29.33
2022-10-14T05:12:26.036Z,25.70
2022-10-14T05:14:58.282Z,27.50
2022-10-14T05:17:36.305Z,32.80
2022-10-14T05:20:03.934Z,28.23
2022-10-14T05:22:30.815Z,30.52
2022-10-14T05:24:57.314Z,26.63
2022-10-14T05:27:24.768Z,25.42
2022-10-14T05:29:51.454Z,24.10
2022-10-14T05:32:17.987Z,23.58
2022-10-14T05:34:45.815Z,26.25
2022-10-14T05:37:23.659Z,25.50
2022-10-14T05:39:52.179Z,28.58
2022-10-14T05:42:22.935Z,27.80
2022-10-14T05:44:52.535Z,25.23
2022-10-14T05:47:19.017Z,32.60
2022-10-14T05:49:47.390Z,35.33
2022-10-14T05:53:21.939Z,31.80
2022-10-14T05:55:52.243Z,29.83
2022-10-14T05:58:21.160Z,30.65
2022-10-14T06:00:48.186Z,35.95
2022-10-14T06:03:18.028Z,33.47
2022-10-14T06:05:45.391Z,25.35
2022-10-14T06:08:11.904Z,33.25
2022-10-14T06:10:38.620Z,29.67
2022-10-14T06:13:05.166Z,30.38
2022-10-14T06:15:35.260Z,29.00
2022-10-14T06:18:01.767Z,29.63
2022-10-14T06:20:29.464Z,28.58
2022-10-14T06:22:55.850Z,39.00
2022-10-14T06:25:22.238Z,40.13
2022-10-14T06:27:48.623Z,35.35
2022-10-14T06:30:15.199Z,35.30
2022-10-14T06:32:41.643Z,37.25
2022-10-14T06:35:08.836Z,31.85
2022-10-14T06:37:35.229Z,33.15
2022-10-14T06:40:01.730Z,38.78
2022-10-14T06:42:28.106Z,40.92
2022-10-14T06:44:56.084Z,44.42
2022-10-14T06:47:22.539Z,38.58
2022-10-14T06:49:48.939Z,37.90
2022-10-14T06:52:15.339Z,40.97
2022-10-14T06:54:45.943Z,45.75
2022-10-14T06:57:14.701Z,39.13
2022-10-14T06:59:41.119Z,34.40
2022-10-14T07:02:07.716Z,32.90
2022-10-14T07:04:34.255Z,40.13
2022-10-14T07:07:00.809Z,40.47
2022-10-14T07:09:27.251Z,38.47
2022-10-14T07:11:53.764Z,38.63
2022-10-14T07:14:20.256Z,40.92
2022-10-14T07:16:47.031Z,41.97
2022-10-14T07:19:13.436Z,37.75
2022-10-14T07:21:39.908Z,36.15
2022-10-14T07:24:06.442Z,38.85
2022-10-14T07:26:33.138Z,43.65
2022-10-14T07:28:59.609Z,43.22
2022-10-14T07:31:26.380Z,40.05
2022-10-14T07:33:52.908Z,40.88
2022-10-14T07:36:22.338Z,41.45
2022-10-14T07:38:49.662Z,41.47
2022-10-14T07:41:19.178Z,42.35
2022-10-14T07:43:48.663Z,36.58
2022-10-14T07:46:16.772Z,44.22
2022-10-14T07:48:56.590Z,38.47
2022-10-14T07:51:23.418Z,41.40
2022-10-14T07:53:50.174Z,46.05
2022-10-14T07:56:16.588Z,40.97
2022-10-14T07:58:44.610Z,35.63
2022-10-14T08:01:11.306Z,36.60
2022-10-14T08:03:37.692Z,47.53
2022-10-14T08:06:05.018Z,39.42
2022-10-14T08:08:32.225Z,45.40
2022-10-14T08:11:07.392Z,38.15
2022-10-14T08:13:34.544Z,38.08
2022-10-14T08:16:02.190Z,42.60
2022-10-14T08:18:29.175Z,43.60
2022-10-14T08:20:55.633Z,36.03
2022-10-14T08:23:22.027Z,33.50
2022-10-14T08:25:49.119Z,45.55
2022-10-14T08:28:15.606Z,33.40
2022-10-14T08:30:42.300Z,38.05
2022-10-14T08:33:08.701Z,40.42
2022-10-14T08:35:35.110Z,36.55
2022-10-14T08:38:02.631Z,38.65
2022-10-14T08:40:30.871Z,38.65
2022-10-14T08:43:14.390Z,40.22
2022-10-14T08:45:50.063Z,35.65
2022-10-14T08:48:24.559Z,35.90
2022-10-14T08:51:03.097Z,35.10
2022-10-14T08:53:38.516Z,31.00
2022-10-14T08:56:05.746Z,35.42
2022-10-14T08:58:43.856Z,36.58
2022-10-14T09:01:27.611Z,37.08
2022-10-14T09:03:58.388Z,36.30
2022-10-14T09:06:27.684Z,37.78
2022-10-14T09:09:07.074Z,38.90
2022-10-14T09:11:39.828Z,31.55
2022-10-14T09:14:10.075Z,51.45
2022-10-14T09:16:40.071Z,34.17
2022-10-14T09:19:29.156Z,37.13
2022-10-14T09:21:55.627Z,30.17
2022-10-14T09:24:27.003Z,30.98
2022-10-14T09:27:24.025Z,28.38
2022-10-14T09:30:02.023Z,22.08
2022-10-14T09:32:36.173Z,27.45
2022-10-14T09:35:06.764Z,31.63
2022-10-14T09:37:37.115Z,35.42
2022-10-14T09:40:37.230Z,26.33
2022-10-14T09:43:09.651Z,23.73
2022-10-14T09:45:59.739Z,25.60
2022-10-14T09:48:32.337Z,28.40
2022-10-14T09:51:01.811Z,29.15
2022-10-14T09:53:37.004Z,30.83
2022-10-14T09:56:06.198Z,25.95
2022-10-14T09:58:42.495Z,26.77
2022-10-14T10:01:15.828Z,28.42
2022-10-14T10:03:42.553Z,26.33
2022-10-14T10:06:11.925Z,23.25
2022-10-14T10:08:42.156Z,31.13
2022-10-14T10:11:13.749Z,29.33
2022-10-14T10:13:45.361Z,30.67
2022-10-14T10:16:26.936Z,31.95
2022-10-14T10:18:55.704Z,31.58
2022-10-14T10:21:29.736Z,28.27
2022-10-14T10:24:02.255Z,29.65
2022-10-14T10:26:32.259Z,30.40
2022-10-14T10:29:02.445Z,33.57
2022-10-14T10:31:28.986Z,28.10
2022-10-14T10:34:16.270Z,27.55
2022-10-14T10:36:50.733Z,30.90
2022-10-14T10:39:28.008Z,35.42
2022-10-14T10:42:20.647Z,31.65
2022-10-14T10:45:01.068Z,26.70
2022-10-14T10:47:36.798Z,28.80
2022-10-14T10:50:10.027Z,25.50
2022-10-14T10:52:50.825Z,24.83
2022-10-14T10:55:20.012Z,27.52
2022-10-14T10:57:52.775Z,28.05
2022-10-14T11:00:22.661Z,26.90
2022-10-14T11:03:24.525Z,23.30
2022-10-14T11:05:59.689Z,27.80
2022-10-14T11:09:11.586Z,23.65
2022-10-14T11:12:03.120Z,25.85
2022-10-14T11:14:46.301Z,22.10
2022-10-14T11:17:51.928Z,33.00
2022-10-14T11:20:24.465Z,24.63
2022-10-14T11:23:09.500Z,23.63
2022-10-14T11:25:57.511Z,17.02
2022-10-14T11:28:53.381Z,19.50
2022-10-14T11:31:42.600Z,23.15
2022-10-14T11:34:20.274Z,20.98
2022-10-14T11:37:24.492Z,22.20
2022-10-14T11:40:15.263Z,22.88
2022-10-14T11:43:01.920Z,24.30
2022-10-14T11:45:35.838Z,20.67
2022-10-14T11:48:15.597Z,20.15
2022-10-14T11:50:49.387Z,23.38
2022-10-14T11:53:27.490Z,18.00
2022-10-14T11:56:04.864Z,24.73
2022-10-14T11:58:34.985Z,18.92
2022-10-14T12:01:06.848Z,18.93
2022-10-14T12:04:02.791Z,17.17
2022-10-14T12:06:41.966Z,21.92
2022-10-14T12:09:27.752Z,16.92
2022-10-14T12:11:59.165Z,23.67
2022-10-14T12:14:46.468Z,18.08
2022-10-14T12:17:22.689Z,16.15
2022-10-14T12:19:51.163Z,17.23
2022-10-14T12:22:26.951Z,20.25
2022-10-14T12:25:01.376Z,19.48
2022-10-14T12:27:28.642Z,15.55
2022-10-14T12:29:58.262Z,18.23
2022-10-14T12:32:30.707Z,18.33
2022-10-14T12:35:02.223Z,14.23
2022-10-14T12:37:35.238Z,18.30
2022-10-14T12:40:02.023Z,15.13
2022-10-14T12:42:30.625Z,15.05
2022-10-14T12:45:01.505Z,15.05
2022-10-14T12:50:02.442Z,14.60
2022-10-14T12:52:35.781Z,16.88
2022-10-14T12:55:13.519Z,14.75
2022-10-14T12:57:42.237Z,13.32
2022-10-14T13:00:35.921Z,15.95
2022-10-14T13:03:04.371Z,17.60
2022-10-14T13:05:43.440Z,15.98
2022-10-14T13:08:20.634Z,12.63
2022-10-14T13:10:49.691Z,11.27
2022-10-14T13:13:38.129Z,10.07
2022-10-14T13:16:05.820Z,14.57
2022-10-14T13:18:38.273Z,15.07
2022-10-14T13:21:07.062Z,17.13
2022-10-14T13:23:46.215Z,13.38
2022-10-14T13:26:36.875Z,14.73
2022-10-14T13:29:26.862Z,10.52
2022-10-14T13:32:08.962Z,11.95
2022-10-14T13:34:41.162Z,13.25
2022-10-14T13:37:34.709Z,10.50
2022-10-14T13:40:17.671Z,13.95
2022-10-14T13:42:48.886Z,11.32
2022-10-14T13:45:17.113Z,16.75
2022-10-14T13:47:48.519Z,11.10
2022-10-14T13:50:22.444Z,12.23
2022-10-14T13:52:59.196Z,9.23
2022-10-14T13:55:27.073Z,11.13
2022-10-14T13:58:23.856Z,9.75
2022-10-14T14:00:59.232Z,12.30
2022-10-14T14:03:28.551Z,14.30
2022-10-14T14:05:55.982Z,10.60
2022-10-14T14:08:42.911Z,10.88
2022-10-14T14:11:18.735Z,8.13
2022-10-14T14:13:53.434Z,7.18
2022-10-14T14:16:26.009Z,10.02
2022-10-14T14:19:04.332Z,8.43
2022-10-14T14:21:34.061Z,8.45
2022-10-14T14:24:02.088Z,9.23
2022-10-14T14:26:38.687Z,8.00
2022-10-14T14:29:06.938Z,7.55
2022-10-14T14:32:01.474Z,11.40
2022-10-14T14:34:22.312Z,9.70
2022-10-14T14:36:53.193Z,13.85
2022-10-14T14:39:25.850Z,9.48
2022-10-14T14:41:53.984Z,9.32
2022-10-14T14:44:27.006Z,7.68
2022-10-14T14:47:03.624Z,8.65
2022-10-14T14:49:33.060Z,9.65
2022-10-14T14:52:01.872Z,12.93
2022-10-14T14:54:28.948Z,6.90
2022-10-14T14:57:04.641Z,10.02
2022-10-14T14:59:35.452Z,9.00
2022-10-14T15:04:33.725Z,11.70
2022-10-14T15:07:21.321Z,10.57
2022-10-14T15:09:54.242Z,11.43
2022-10-14T15:12:23.808Z,7.68
2022-10-14T15:14:54.318Z,10.55
2022-10-14T15:17:27.769Z,9.23
2022-10-14T15:19:56.976Z,13.40
2022-10-14T15:22:36.923Z,9.95
2022-10-14T15:25:54.668Z,9.63
2022-10-14T15:28:32.228Z,9.48
2022-10-14T15:31:03.109Z,9.77
2022-10-14T15:33:32.127Z,11.48
2022-10-14T15:36:01.800Z,10.82
2022-10-14T15:38:29.323Z,8.68
2022-10-14T15:40:55.813Z,10.57
2022-10-14T15:43:27.132Z,12.02
2022-10-14T15:46:17.875Z,8.60
2022-10-14T15:48:50.287Z,8.40
2022-10-14T15:51:18.357Z,9.85
2022-10-14T15:53:44.778Z,8.90
2022-10-14T15:56:11.660Z,10.20
2022-10-14T15:58:38.225Z,9.32
2022-10-14T16:01:06.409Z,11.98
2022-10-14T16:03:36.027Z,11.07
2022-10-14T16:06:09.598Z,9.63
2022-10-14T16:08:38.387Z,10.20
2022-10-14T16:11:21.767Z,7.30
2022-10-14T16:13:48.165Z,7.88
2022-10-14T16:16:18.844Z,10.02
2022-10-14T16:18:45.272Z,12.65
2022-10-14T16:21:16.772Z,9.85
2022-10-14T16:23:43.787Z,11.77
2022-10-14T16:26:10.837Z,11.18
2022-10-14T16:28:37.609Z,12.60
2022-10-14T16:31:04.037Z,11.07
2022-10-14T16:33:30.472Z,12.95
2022-10-14T16:35:57.557Z,12.98
2022-10-14T16:38:24.298Z,14.98
2022-10-14T16:40:58.807Z,10.57
2022-10-14T16:43:25.895Z,8.95
2022-10-14T16:45:52.621Z,8.88
2022-10-14T16:48:19.486Z,13.27
2022-10-14T16:50:50.495Z,8.80
2022-10-14T16:53:35.665Z,10.10
2022-10-14T16:56:02.115Z,10.90
2022-10-14T16:58:28.917Z,11.32
2022-10-14T17:00:56.069Z,13.93
2022-10-14T17:03:22.465Z,8.55
2022-10-14T17:05:57.750Z,9.75
2022-10-14T17:08:24.134Z,13.13
2022-10-14T17:10:57.590Z,16.80
2022-10-14T17:13:23.999Z,24.88
2022-10-14T17:15:51.359Z,31.15
2022-10-14T17:18:18.028Z,21.52
2022-10-14T17:20:45.154Z,18.88
2022-10-14T17:23:11.536Z,16.00
2022-10-14T17:25:39.260Z,19.90
2022-10-14T17:28:05.670Z,16.50
2022-10-14T17:30:32.071Z,19.80
2022-10-14T17:32:58.464Z,18.70
2022-10-14T17:35:25.836Z,16.48
2022-10-14T17:37:52.949Z,20.08
2022-10-14T17:40:21.992Z,34.70
2022-10-14T17:42:49.452Z,22.77
2022-10-14T17:45:16.336Z,32.97
2022-10-14T17:47:42.706Z,25.83
2022-10-14T17:50:10.840Z,17.25
2022-10-14T17:52:37.292Z,16.60
2022-10-14T17:55:04.079Z,16.10
2022-10-14T17:57:30.723Z,18.10
2022-10-14T17:59:57.138Z,17.45
2022-10-14T18:02:23.605Z,17.45
2022-10-14T18:04:50.164Z,19.35
2022-10-14T18:07:18.749Z,14.73
2022-10-14T18:09:45.213Z,15.77
2022-10-14T18:12:11.608Z,12.38
2022-10-14T18:14:40.276Z,12.40
2022-10-14T18:17:06.818Z,15.52
2022-10-14T18:19:33.555Z,13.65
2022-10-14T18:22:00.054Z,13.88
2022-10-14T18:24:26.514Z,9.50
2022-10-14T18:26:53.312Z,11.10
2022-10-14T18:29:19.754Z,14.45
2022-10-14T18:31:46.298Z,14.38
2022-10-14T18:34:12.911Z,11.75
2022-10-14T18:36:39.793Z,12.48
2022-10-14T18:39:10.172Z,18.20
2022-10-14T18:41:39.805Z,14.85
2022-10-14T18:44:07.353Z,23.80
2022-10-14T18:46:37.005Z,14.30
2022-10-14T18:49:05.897Z,10.98
2022-10-14T18:51:35.244Z,13.85
2022-10-14T18:54:05.692Z,11.27
2022-10-14T18:56:35.198Z,14.82
2022-10-14T18:59:08.953Z,17.25
2022-10-14T19:01:36.911Z,13.95
2022-10-14T19:04:05.634Z,11.90
2022-10-14T19:06:32.891Z,12.02
2022-10-14T19:09:01.608Z,15.63
2022-10-14T19:11:28.885Z,10.68
2022-10-14T19:13:57.024Z,10.52
2022-10-14T19:16:28.864Z,13.50
2022-10-14T19:18:58.215Z,10.77
2022-10-14T19:21:29.738Z,12.55
2022-10-14T19:23:58.068Z,15.52
2022-10-14T19:26:27.164Z,13.63
2022-10-14T19:28:53.940Z,14.20
2022-10-14T19:31:24.758Z,10.93
2022-10-14T19:33:54.975Z,12.15
2022-10-14T19:36:23.918Z,11.73
2022-10-14T19:38:57.807Z,14.07
2022-10-14T19:41:26.418Z,11.82
2022-10-14T19:43:56.021Z,12.55
2022-10-14T19:46:23.754Z,10.18
2022-10-14T19:48:50.126Z,13.85
2022-10-14T19:51:18.136Z,11.18
2022-10-14T19:53:44.505Z,12.43
2022-10-14T19:56:13.323Z,11.50
2022-10-14T19:58:44.644Z,15.00
2022-10-14T20:01:14.228Z,14.07
2022-10-14T20:03:41.127Z,15.38
2022-10-14T20:06:08.382Z,14.18
2022-10-14T20:08:35.429Z,12.95
2022-10-14T20:11:08.438Z,12.93
2022-10-14T20:13:35.170Z,12.77
2022-10-14T20:16:02.482Z,14.13
2022-10-14T20:18:29.782Z,12.25
2022-10-14T20:20:56.840Z,14.23
2022-10-14T20:23:25.051Z,13.90
2022-10-14T20:25:51.758Z,13.32
2022-10-14T20:28:20.807Z,15.57
2022-10-14T20:30:47.288Z,11.00
2022-10-14T20:33:14.095Z,17.17
2022-10-14T20:35:40.572Z,13.82
2022-10-14T20:38:06.972Z,15.80
2022-10-14T20:40:35.279Z,11.82
2022-10-14T20:43:02.584Z,12.20
2022-10-14T20:45:28.980Z,10.57
2022-10-14T20:47:55.369Z,13.60
2022-10-14T20:50:22.416Z,18.33
2022-10-14T20:52:49.339Z,12.73
2022-10-14T20:55:15.850Z,12.90
2022-10-14T20:57:42.248Z,19.58
2022-10-14T21:00:09.847Z,10.13
2022-10-14T21:02:36.283Z,13.02
2022-10-14T21:05:02.833Z,12.93
2022-10-14T21:07:29.235Z,15.52
2022-10-14T21:09:55.633Z,10.35
2022-10-14T21:12:22.169Z,13.50
2022-10-14T21:14:48.824Z,14.90
2022-10-14T21:17:15.242Z,13.93
2022-10-14T21:19:41.657Z,12.27
2022-10-14T21:22:09.571Z,13.32
2022-10-14T21:24:36.264Z,12.90
2022-10-14T21:27:02.761Z,14.32
2022-10-14T21:29:29.159Z,11.68
2022-10-14T21:31:55.565Z,12.50
2022-10-14T21:34:24.704Z,13.38
2022-10-14T21:36:51.163Z,11.63
2022-10-14T21:39:18.356Z,19.67
2022-10-14T21:41:45.554Z,12.18
2022-10-14T21:44:17.311Z,13.75
2022-10-14T21:46:43.708Z,12.77
2022-10-14T21:49:10.964Z,12.48
2022-10-14T21:51:37.694Z,13.60
2022-10-14T21:54:04.825Z,16.17
2022-10-14T21:56:31.460Z,16.17
2022-10-14T21:58:58.367Z,14.02
2022-10-14T22:01:29.550Z,15.82
2022-10-14T22:03:59.157Z,11.88
2022-10-14T22:06:26.395Z,16.65
2022-10-14T22:08:55.480Z,12.52
2022-10-14T22:11:23.604Z,15.05
2022-10-14T22:13:51.164Z,15.50
2022-10-14T22:16:17.869Z,18.58
2022-10-14T22:18:46.733Z,21.80
2022-10-14T22:21:15.428Z,17.55
2022-10-14T22:23:42.125Z,18.48
2022-10-14T22:26:11.991Z,19.50
2022-10-14T22:28:38.862Z,19.73
2022-10-14T22:31:15.154Z,18.45
2022-10-14T22:33:42.488Z,23.95
2022-10-14T22:36:10.530Z,22.77
2022-10-14T22:38:38.293Z,21.70
2022-10-14T22:41:06.275Z,18.15
2022-10-14T22:43:33.987Z,24.33
2022-10-14T22:46:02.685Z,24.17
2022-10-14T22:48:30.024Z,23.75
2022-10-14T22:50:57.283Z,26.05
2022-10-14T22:53:24.076Z,20.85
2022-10-14T22:55:51.932Z,24.73
2022-10-14T22:58:18.309Z,26.88
2022-10-14T23:00:44.698Z,22.70
2022-10-14T23:03:11.150Z,27.50
2022-10-14T23:05:37.624Z,24.70
2022-10-14T23:08:09.752Z,26.65
2022-10-14T23:10:39.317Z,24.05
2022-10-14T23:13:06.696Z,24.60
2022-10-14T23:15:33.555Z,25.17
2022-10-14T23:18:00.214Z,26.40
2022-10-14T23:20:27.578Z,28.75
2022-10-14T23:22:53.974Z,25.42
2022-10-14T23:25:20.532Z,26.15
2022-10-14T23:27:47.075Z,25.33
2022-10-14T23:30:13.484Z,25.90
2022-10-14T23:32:40.059Z,21.98
2022-10-14T23:35:06.786Z,22.75
2022-10-14T23:37:33.377Z,26.75
2022-10-14T23:40:01.632Z,25.73
2022-10-14T23:42:28.027Z,23.42
2022-10-14T23:44:54.419Z,30.20
2022-10-14T23:47:21.181Z,28.90
2022-10-14T23:49:47.847Z,25.75
2022-10-14T23:52:14.264Z,29.63
2022-10-14T23:54:40.687Z,24.58
2022-10-14T23:57:07.096Z,25.23
2022-10-14T23:59:33.556Z,27.08
